UAE20 EGCC-OMDB
Flight info
| Callsign | UAE20 |
|---|---|
| Flight time | N/A |
| Altitude | 37000 |
| Route | DESIG L603 DOLAS DCT NAVPI DCT NOLRU DCT DODEN DCT NEGIX DCT DINKU M867 XERUM DCT BAVAX DCT RADIZ DCT DARZA DCT PINDO DCT PAXIS/N0490F390 Y707 OBRAN L321 REXUM M872 BDB Y214 RAPMA DCT KUVSO DCT KATIT DCT PEKEM M628 RIGIL G783 ELUDA/N0474F350 G783 ASPED Q308 KIPOK Q568 IMPED |
| Aircraft | A388/J-SADE2E3FGHIJ3J4J5M1RWXY/LB1D1 |
Departure
| Time | 2026-05-04 02:38 |
|---|---|
| Airport | Manchester Airport (EGCC) |
Arrival
| Time | N/A |
|---|---|
| Airport | Dubai International Airport (OMDB) |
| Time | Latitude | Longitude | Altitude | Speed | Heading |
|---|---|---|---|---|---|
| 2026-05-04 02:32 | 53.35611 | -2.27682 | 248 ft | 0 kts | 230° |
| 2026-05-04 02:34 | 53.35606 | -2.27692 | 248 ft | 4 kts | 231° |
| 2026-05-04 02:34 | 53.35570 | -2.27755 | 244 ft | 11 kts | 224° |
| 2026-05-04 02:34 | 53.35500 | -2.27863 | 245 ft | 15 kts | 221° |
| 2026-05-04 02:35 | 53.35408 | -2.27995 | 242 ft | 20 kts | 221° |
| 2026-05-04 02:35 | 53.35303 | -2.28176 | 238 ft | 24 kts | 226° |
| 2026-05-04 02:35 | 53.35184 | -2.28394 | 237 ft | 27 kts | 230° |
| 2026-05-04 02:35 | 53.35063 | -2.28645 | 237 ft | 28 kts | 230° |
| 2026-05-04 02:36 | 53.34928 | -2.28889 | 233 ft | 30 kts | 226° |
| 2026-05-04 02:36 | 53.34785 | -2.29164 | 225 ft | 33 kts | 230° |
| 2026-05-04 02:36 | 53.34675 | -2.29332 | 219 ft | 21 kts | 199° |
| 2026-05-04 02:36 | 53.34554 | -2.29294 | 223 ft | 15 kts | 115° |
| 2026-05-04 02:37 | 53.34586 | -2.29128 | 223 ft | 28 kts | 50° |
| 2026-05-04 02:37 | 53.34883 | -2.28505 | 240 ft | 106 kts | 52° |
| 2026-05-04 02:37 | 53.35475 | -2.27286 | 255 ft | 158 kts | 51° |
| 2026-05-04 02:37 | 53.36173 | -2.25844 | 766 ft | 158 kts | 51° |
| 2026-05-04 02:38 | 53.36884 | -2.24373 | 1293 ft | 165 kts | 52° |
| 2026-05-04 02:38 | 53.37586 | -2.22874 | 1913 ft | 163 kts | 54° |
| 2026-05-04 02:38 | 53.38296 | -2.21302 | 2215 ft | 180 kts | 54° |
| 2026-05-04 02:38 | 53.39085 | -2.19539 | 2438 ft | 198 kts | 54° |
| 2026-05-04 02:39 | 53.39948 | -2.17621 | 2573 ft | 213 kts | 54° |
| 2026-05-04 02:39 | 53.40894 | -2.15529 | 2813 ft | 238 kts | 53° |
| 2026-05-04 02:39 | 53.41917 | -2.13270 | 3251 ft | 254 kts | 52° |
| 2026-05-04 02:39 | 53.43011 | -2.10858 | 3898 ft | 262 kts | 52° |
| 2026-05-04 02:40 | 53.44112 | -2.08426 | 4732 ft | 264 kts | 52° |
| 2026-05-04 02:40 | 53.45217 | -2.05984 | 4980 ft | 266 kts | 51° |
| 2026-05-04 02:40 | 53.46343 | -2.03491 | 5007 ft | 269 kts | 52° |
| 2026-05-04 02:40 | 53.47466 | -2.00996 | 5005 ft | 268 kts | 52° |
| 2026-05-04 02:41 | 53.48582 | -1.98514 | 5008 ft | 267 kts | 52° |
| 2026-05-04 02:41 | 53.49712 | -1.95999 | 5069 ft | 269 kts | 52° |
| 2026-05-04 02:41 | 53.50838 | -1.93492 | 5478 ft | 274 kts | 52° |
| 2026-05-04 02:41 | 53.51945 | -1.90870 | 6363 ft | 277 kts | 61° |
| 2026-05-04 02:42 | 53.52450 | -1.87745 | 7168 ft | 280 kts | 89° |
| 2026-05-04 02:42 | 53.52141 | -1.84490 | 7952 ft | 286 kts | 107° |
| 2026-05-04 02:42 | 53.51525 | -1.81319 | 8703 ft | 293 kts | 110° |
| 2026-05-04 02:42 | 53.50863 | -1.78092 | 9647 ft | 292 kts | 110° |
| 2026-05-04 02:43 | 53.50220 | -1.74816 | 10370 ft | 298 kts | 108° |
| 2026-05-04 02:43 | 53.49581 | -1.71388 | 10638 ft | 320 kts | 108° |
| 2026-05-04 02:43 | 53.48920 | -1.67717 | 10847 ft | 340 kts | 107° |
| 2026-05-04 02:43 | 53.48231 | -1.63836 | 11273 ft | 351 kts | 107° |
| 2026-05-04 02:44 | 53.47533 | -1.59891 | 12004 ft | 353 kts | 107° |
| 2026-05-04 02:44 | 53.46834 | -1.55956 | 12719 ft | 356 kts | 107° |
| 2026-05-04 02:44 | 53.46118 | -1.51936 | 13344 ft | 361 kts | 108° |
| 2026-05-04 02:44 | 53.45393 | -1.47884 | 14027 ft | 364 kts | 108° |
| 2026-05-04 02:45 | 53.44665 | -1.43826 | 14648 ft | 366 kts | 108° |
| 2026-05-04 02:45 | 53.43926 | -1.39721 | 15273 ft | 370 kts | 108° |
| 2026-05-04 02:45 | 53.43179 | -1.35577 | 15846 ft | 373 kts | 108° |
| 2026-05-04 02:45 | 53.42435 | -1.31459 | 16454 ft | 375 kts | 108° |
| 2026-05-04 02:46 | 53.41673 | -1.27252 | 17089 ft | 378 kts | 107° |
| 2026-05-04 02:46 | 53.40910 | -1.23044 | 17630 ft | 382 kts | 108° |
| 2026-05-04 02:46 | 53.40135 | -1.18788 | 18201 ft | 386 kts | 108° |
| 2026-05-04 02:46 | 53.39347 | -1.14466 | 18714 ft | 388 kts | 108° |
| 2026-05-04 02:47 | 53.38557 | -1.10144 | 19268 ft | 388 kts | 107° |
| 2026-05-04 02:47 | 53.37764 | -1.05814 | 19719 ft | 392 kts | 107° |
| 2026-05-04 02:47 | 53.36959 | -1.01430 | 20155 ft | 396 kts | 108° |
| 2026-05-04 02:47 | 53.36149 | -0.97032 | 20648 ft | 398 kts | 108° |
| 2026-05-04 02:48 | 53.35339 | -0.92646 | 21167 ft | 399 kts | 108° |
| 2026-05-04 02:48 | 53.34525 | -0.88248 | 21617 ft | 402 kts | 108° |
| 2026-05-04 02:48 | 53.33691 | -0.83753 | 22043 ft | 406 kts | 108° |
| 2026-05-04 02:48 | 53.32854 | -0.79249 | 22608 ft | 406 kts | 108° |
| 2026-05-04 02:49 | 53.32012 | -0.74727 | 23104 ft | 408 kts | 108° |
| 2026-05-04 02:49 | 53.31163 | -0.70182 | 23550 ft | 410 kts | 108° |
| 2026-05-04 02:49 | 53.30307 | -0.65613 | 23938 ft | 413 kts | 108° |
| 2026-05-04 02:49 | 53.29451 | -0.61050 | 24318 ft | 415 kts | 108° |
| 2026-05-04 02:50 | 53.28582 | -0.56428 | 24690 ft | 418 kts | 108° |
| 2026-05-04 02:50 | 53.27703 | -0.51770 | 25043 ft | 422 kts | 108° |
| 2026-05-04 02:50 | 53.26818 | -0.47088 | 25479 ft | 423 kts | 109° |
| 2026-05-04 02:50 | 53.25937 | -0.42440 | 25900 ft | 425 kts | 108° |
| 2026-05-04 02:51 | 53.25038 | -0.37709 | 26285 ft | 429 kts | 109° |
| 2026-05-04 02:51 | 53.24131 | -0.32945 | 26748 ft | 431 kts | 109° |
| 2026-05-04 02:51 | 53.23214 | -0.28144 | 27170 ft | 434 kts | 109° |
| 2026-05-04 02:51 | 53.22289 | -0.23313 | 27623 ft | 438 kts | 109° |
| 2026-05-04 02:52 | 53.21359 | -0.18468 | 28084 ft | 441 kts | 109° |
| 2026-05-04 02:52 | 53.20418 | -0.13578 | 28557 ft | 444 kts | 109° |
| 2026-05-04 02:52 | 53.19469 | -0.08659 | 28998 ft | 447 kts | 109° |
| 2026-05-04 02:52 | 53.18510 | -0.03700 | 29461 ft | 451 kts | 109° |
| 2026-05-04 02:53 | 53.17541 | 0.01297 | 29887 ft | 455 kts | 110° |
| 2026-05-04 02:53 | 53.16560 | 0.06344 | 30264 ft | 459 kts | 110° |
| 2026-05-04 02:53 | 53.15582 | 0.11359 | 30670 ft | 462 kts | 110° |
| 2026-05-04 02:53 | 53.14583 | 0.16467 | 31063 ft | 465 kts | 110° |
| 2026-05-04 02:54 | 53.13575 | 0.21613 | 31449 ft | 468 kts | 109° |
| 2026-05-04 02:54 | 53.12560 | 0.26779 | 31826 ft | 472 kts | 109° |
| 2026-05-04 02:54 | 53.11532 | 0.31997 | 32204 ft | 475 kts | 109° |
| 2026-05-04 02:54 | 53.10496 | 0.37241 | 32579 ft | 478 kts | 109° |
| 2026-05-04 02:55 | 53.08398 | 0.47820 | 33328 ft | 485 kts | 109° |
| 2026-05-04 02:55 | 53.07335 | 0.53161 | 33657 ft | 489 kts | 110° |
| 2026-05-04 02:55 | 53.06255 | 0.58564 | 33926 ft | 494 kts | 110° |
| 2026-05-04 02:56 | 53.05167 | 0.63993 | 34269 ft | 496 kts | 110° |
| 2026-05-04 02:56 | 53.04071 | 0.69451 | 34617 ft | 498 kts | 110° |
| 2026-05-04 02:56 | 53.02973 | 0.74903 | 35041 ft | 499 kts | 110° |
| 2026-05-04 02:56 | 53.01869 | 0.80375 | 35485 ft | 498 kts | 110° |
| 2026-05-04 02:57 | 53.00764 | 0.85830 | 35917 ft | 498 kts | 110° |
| 2026-05-04 02:57 | 53.00032 | 0.89438 | 36196 ft | 498 kts | 110° |
| 2026-05-04 02:57 | 52.98926 | 0.94884 | 36619 ft | 498 kts | 110° |
| 2026-05-04 02:57 | 52.97407 | 1.02096 | 36938 ft | 503 kts | 114° |
| 2026-05-04 02:58 | 52.96152 | 1.07510 | 36968 ft | 501 kts | 113° |
| 2026-05-04 02:58 | 52.94118 | 1.16584 | 36965 ft | 502 kts | 112° |
| 2026-05-04 02:59 | 52.91691 | 1.27368 | 36963 ft | 502 kts | 113° |
| 2026-05-04 02:59 | 52.89223 | 1.38208 | 36963 ft | 502 kts | 113° |
| 2026-05-04 03:00 | 52.86751 | 1.48990 | 36964 ft | 502 kts | 113° |
| 2026-05-04 03:00 | 52.84258 | 1.59808 | 36954 ft | 503 kts | 113° |
| 2026-05-04 03:01 | 52.81753 | 1.70625 | 36960 ft | 503 kts | 113° |
| 2026-05-04 03:01 | 52.79246 | 1.81395 | 36957 ft | 504 kts | 114° |
| 2026-05-04 03:02 | 52.76732 | 1.92140 | 36959 ft | 504 kts | 114° |
| 2026-05-04 03:02 | 52.74194 | 2.02938 | 36953 ft | 504 kts | 114° |
| 2026-05-04 03:03 | 52.71650 | 2.13703 | 36956 ft | 504 kts | 114° |
| 2026-05-04 03:03 | 52.69098 | 2.24445 | 36949 ft | 504 kts | 114° |
| 2026-05-04 03:04 | 52.66541 | 2.35161 | 36945 ft | 503 kts | 114° |
| 2026-05-04 03:04 | 52.63989 | 2.45801 | 36944 ft | 503 kts | 114° |
| 2026-05-04 03:05 | 52.61412 | 2.56493 | 36941 ft | 502 kts | 115° |
| 2026-05-04 03:05 | 52.58835 | 2.67130 | 36940 ft | 503 kts | 115° |
| 2026-05-04 03:06 | 52.56238 | 2.77803 | 36953 ft | 503 kts | 115° |
| 2026-05-04 03:06 | 52.53468 | 2.88346 | 36958 ft | 501 kts | 119° |
| 2026-05-04 03:07 | 52.50455 | 2.98664 | 36962 ft | 501 kts | 118° |
| 2026-05-04 03:07 | 52.47455 | 3.09012 | 36935 ft | 502 kts | 119° |
| 2026-05-04 03:08 | 52.44437 | 3.19351 | 36940 ft | 502 kts | 119° |
| 2026-05-04 03:08 | 52.41403 | 3.29677 | 36942 ft | 503 kts | 119° |
| 2026-05-04 03:09 | 52.38376 | 3.39935 | 36948 ft | 503 kts | 119° |
| 2026-05-04 03:09 | 52.35321 | 3.50245 | 36931 ft | 504 kts | 120° |
| 2026-05-04 03:10 | 52.32249 | 3.60563 | 36942 ft | 504 kts | 120° |
| 2026-05-04 03:10 | 52.29172 | 3.70858 | 36949 ft | 504 kts | 120° |
| 2026-05-04 03:11 | 52.26077 | 3.81167 | 36960 ft | 505 kts | 120° |
| 2026-05-04 03:11 | 52.23002 | 3.91367 | 36957 ft | 505 kts | 120° |
| 2026-05-04 03:12 | 52.19895 | 4.01634 | 36951 ft | 505 kts | 121° |
| 2026-05-04 03:12 | 52.16782 | 4.11863 | 36954 ft | 505 kts | 121° |
| 2026-05-04 03:13 | 52.13653 | 4.22108 | 36952 ft | 505 kts | 121° |
| 2026-05-04 03:13 | 52.10513 | 4.32349 | 36946 ft | 505 kts | 121° |
| 2026-05-04 03:14 | 52.07365 | 4.42570 | 36946 ft | 505 kts | 121° |
| 2026-05-04 03:14 | 52.04233 | 4.52696 | 36943 ft | 505 kts | 121° |
| 2026-05-04 03:15 | 52.01075 | 4.62867 | 36940 ft | 504 kts | 121° |
| 2026-05-04 03:15 | 51.97909 | 4.73016 | 36938 ft | 504 kts | 122° |
| 2026-05-04 03:16 | 51.94733 | 4.83159 | 36937 ft | 504 kts | 122° |
| 2026-05-04 03:16 | 51.91553 | 4.93271 | 36937 ft | 503 kts | 122° |
| 2026-05-04 03:17 | 51.88399 | 5.03260 | 36941 ft | 503 kts | 122° |
| 2026-05-04 03:17 | 51.85202 | 5.13341 | 36944 ft | 503 kts | 122° |
| 2026-05-04 03:18 | 51.81996 | 5.23410 | 36947 ft | 503 kts | 122° |
| 2026-05-04 03:18 | 51.78803 | 5.33399 | 36943 ft | 503 kts | 122° |
| 2026-05-04 03:19 | 51.75579 | 5.43443 | 36940 ft | 503 kts | 122° |
| 2026-05-04 03:19 | 51.72345 | 5.53478 | 36944 ft | 504 kts | 122° |
| 2026-05-04 03:20 | 51.69103 | 5.63496 | 36971 ft | 504 kts | 122° |
| 2026-05-04 03:20 | 51.65855 | 5.73494 | 36991 ft | 503 kts | 123° |
| 2026-05-04 03:21 | 51.62623 | 5.83401 | 36981 ft | 502 kts | 123° |
| 2026-05-04 03:21 | 51.59368 | 5.93338 | 36971 ft | 502 kts | 123° |
| 2026-05-04 03:22 | 51.56108 | 6.03250 | 36971 ft | 501 kts | 123° |
| 2026-05-04 03:22 | 51.52841 | 6.13150 | 36967 ft | 501 kts | 123° |
| 2026-05-04 03:23 | 51.49243 | 6.22634 | 36964 ft | 494 kts | 131° |
| 2026-05-04 03:23 | 51.44891 | 6.31066 | 36944 ft | 488 kts | 137° |
| 2026-05-04 03:24 | 51.40405 | 6.39151 | 36942 ft | 489 kts | 136° |
| 2026-05-04 03:24 | 51.35938 | 6.47354 | 36957 ft | 489 kts | 136° |
| 2026-05-04 03:25 | 51.31502 | 6.55530 | 36971 ft | 488 kts | 136° |
| 2026-05-04 03:25 | 51.27043 | 6.63728 | 36970 ft | 488 kts | 136° |
| 2026-05-04 03:26 | 51.22582 | 6.71902 | 36963 ft | 488 kts | 136° |
| 2026-05-04 03:26 | 51.18126 | 6.80039 | 36966 ft | 488 kts | 136° |
| 2026-05-04 03:27 | 51.13652 | 6.88181 | 36964 ft | 488 kts | 136° |
| 2026-05-04 03:27 | 51.09200 | 6.96259 | 36967 ft | 488 kts | 136° |
| 2026-05-04 03:28 | 51.04707 | 7.04384 | 36991 ft | 489 kts | 136° |
| 2026-05-04 03:28 | 51.00211 | 7.12489 | 36983 ft | 489 kts | 136° |
| 2026-05-04 03:29 | 50.95702 | 7.20593 | 36994 ft | 490 kts | 136° |
| 2026-05-04 03:29 | 50.91180 | 7.28695 | 36998 ft | 490 kts | 136° |
| 2026-05-04 03:30 | 50.86699 | 7.36695 | 37002 ft | 490 kts | 137° |
| 2026-05-04 03:30 | 50.82148 | 7.44797 | 37001 ft | 490 kts | 137° |
| 2026-05-04 03:31 | 50.77608 | 7.52852 | 36984 ft | 491 kts | 137° |
| 2026-05-04 03:31 | 50.73057 | 7.60903 | 36990 ft | 491 kts | 137° |
| 2026-05-04 03:32 | 50.68502 | 7.68929 | 36998 ft | 491 kts | 137° |
| 2026-05-04 03:32 | 50.63955 | 7.76909 | 36999 ft | 492 kts | 137° |
| 2026-05-04 03:33 | 50.59372 | 7.84921 | 37018 ft | 492 kts | 137° |
| 2026-05-04 03:33 | 50.54791 | 7.92906 | 37004 ft | 492 kts | 137° |
| 2026-05-04 03:34 | 50.50198 | 8.00885 | 37004 ft | 492 kts | 137° |
| 2026-05-04 03:34 | 50.45596 | 8.08857 | 37004 ft | 492 kts | 137° |
| 2026-05-04 03:35 | 50.40992 | 8.16805 | 36998 ft | 492 kts | 137° |
| 2026-05-04 03:35 | 50.36416 | 8.24682 | 37014 ft | 492 kts | 137° |
| 2026-05-04 03:36 | 50.31798 | 8.32604 | 37011 ft | 491 kts | 137° |
| 2026-05-04 03:36 | 50.27205 | 8.40462 | 37024 ft | 492 kts | 137° |
| 2026-05-04 03:37 | 50.22604 | 8.48309 | 37015 ft | 491 kts | 137° |
| 2026-05-04 03:37 | 50.17989 | 8.56153 | 37016 ft | 491 kts | 137° |
| 2026-05-04 03:38 | 50.13385 | 8.63955 | 37021 ft | 491 kts | 137° |
| 2026-05-04 03:38 | 50.08751 | 8.71784 | 37005 ft | 491 kts | 137° |
| 2026-05-04 03:39 | 50.04130 | 8.79568 | 37019 ft | 491 kts | 137° |
| 2026-05-04 03:39 | 49.99491 | 8.87360 | 37013 ft | 490 kts | 137° |
| 2026-05-04 03:40 | 49.94847 | 8.95134 | 37007 ft | 490 kts | 137° |
| 2026-05-04 03:40 | 49.90230 | 9.02840 | 36997 ft | 490 kts | 137° |
| 2026-05-04 03:41 | 49.85582 | 9.10575 | 36988 ft | 490 kts | 137° |
| 2026-05-04 03:41 | 49.80932 | 9.18289 | 37008 ft | 490 kts | 137° |
| 2026-05-04 03:42 | 49.76283 | 9.25978 | 37009 ft | 490 kts | 137° |
| 2026-05-04 03:42 | 49.71631 | 9.33650 | 37010 ft | 490 kts | 137° |
| 2026-05-04 03:43 | 49.66993 | 9.41276 | 37012 ft | 490 kts | 137° |
| 2026-05-04 03:43 | 49.62319 | 9.48938 | 37000 ft | 490 kts | 137° |
| 2026-05-04 03:44 | 49.57660 | 9.56552 | 37005 ft | 490 kts | 137° |
| 2026-05-04 03:44 | 49.52981 | 9.64177 | 37015 ft | 489 kts | 137° |
| 2026-05-04 03:45 | 49.48327 | 9.71737 | 37018 ft | 489 kts | 137° |
| 2026-05-04 03:45 | 49.43639 | 9.79330 | 37020 ft | 489 kts | 137° |
| 2026-05-04 03:46 | 49.38947 | 9.86907 | 37008 ft | 489 kts | 137° |
| 2026-05-04 03:46 | 49.34256 | 9.94463 | 37020 ft | 489 kts | 137° |
| 2026-05-04 03:47 | 49.29551 | 10.02017 | 37020 ft | 489 kts | 137° |
| 2026-05-04 03:47 | 49.24846 | 10.09547 | 37019 ft | 489 kts | 137° |
| 2026-05-04 03:48 | 49.20130 | 10.17074 | 37032 ft | 490 kts | 137° |
| 2026-05-04 03:48 | 49.15452 | 10.24519 | 37049 ft | 489 kts | 137° |
| 2026-05-04 03:49 | 49.10730 | 10.32011 | 37066 ft | 490 kts | 137° |
| 2026-05-04 03:49 | 49.06003 | 10.39489 | 37061 ft | 490 kts | 137° |
| 2026-05-04 03:50 | 49.01270 | 10.46956 | 37059 ft | 490 kts | 137° |
| 2026-05-04 03:50 | 48.97326 | 10.53160 | 37061 ft | 490 kts | 137° |
| 2026-05-04 03:51 | 48.92577 | 10.60611 | 37068 ft | 490 kts | 137° |
| 2026-05-04 03:51 | 48.87827 | 10.68042 | 37067 ft | 490 kts | 137° |
| 2026-05-04 03:52 | 48.83066 | 10.75468 | 37062 ft | 490 kts | 137° |
| 2026-05-04 03:52 | 48.78311 | 10.82866 | 37058 ft | 490 kts | 137° |
| 2026-05-04 03:53 | 48.73552 | 10.90246 | 37050 ft | 489 kts | 137° |
| 2026-05-04 03:53 | 48.68785 | 10.97617 | 37048 ft | 489 kts | 137° |
| 2026-05-04 03:54 | 48.64056 | 11.04910 | 37044 ft | 489 kts | 137° |
| 2026-05-04 03:54 | 48.59286 | 11.12243 | 37047 ft | 489 kts | 137° |
| 2026-05-04 03:55 | 48.54507 | 11.19570 | 37052 ft | 489 kts | 137° |
| 2026-05-04 03:55 | 48.49717 | 11.26894 | 37054 ft | 489 kts | 137° |
| 2026-05-04 03:56 | 48.44932 | 11.34189 | 37058 ft | 489 kts | 137° |
| 2026-05-04 03:56 | 48.40176 | 11.41419 | 37055 ft | 489 kts | 137° |
| 2026-05-04 03:57 | 48.35382 | 11.48686 | 37054 ft | 489 kts | 137° |
| 2026-05-04 03:57 | 48.30577 | 11.55948 | 37053 ft | 489 kts | 137° |
| 2026-05-04 03:58 | 48.23371 | 11.66803 | 37051 ft | 489 kts | 137° |
| 2026-05-04 03:58 | 48.18569 | 11.74011 | 37055 ft | 489 kts | 137° |
| 2026-05-04 03:59 | 48.13789 | 11.81166 | 37060 ft | 489 kts | 137° |
| 2026-05-04 03:59 | 48.08943 | 11.88398 | 37067 ft | 489 kts | 137° |
| 2026-05-04 04:00 | 48.04152 | 11.95530 | 37076 ft | 489 kts | 138° |
| 2026-05-04 04:00 | 47.99316 | 12.02706 | 37071 ft | 489 kts | 137° |
| 2026-05-04 04:01 | 47.94479 | 12.09865 | 37073 ft | 490 kts | 137° |
| 2026-05-04 04:01 | 47.89660 | 12.16978 | 37076 ft | 490 kts | 137° |
| 2026-05-04 04:02 | 47.84808 | 12.24121 | 37080 ft | 491 kts | 138° |
| 2026-05-04 04:02 | 47.79940 | 12.31266 | 37082 ft | 491 kts | 138° |
| 2026-05-04 04:03 | 47.75069 | 12.38396 | 37074 ft | 491 kts | 138° |
| 2026-05-04 04:03 | 47.70200 | 12.45503 | 37074 ft | 491 kts | 138° |
| 2026-05-04 04:04 | 47.65353 | 12.52559 | 37074 ft | 491 kts | 138° |
| 2026-05-04 04:04 | 47.60476 | 12.59638 | 37065 ft | 491 kts | 138° |
| 2026-05-04 04:05 | 47.55580 | 12.66724 | 37052 ft | 492 kts | 138° |
| 2026-05-04 04:05 | 47.50687 | 12.73790 | 37055 ft | 491 kts | 137° |
| 2026-05-04 04:06 | 47.45793 | 12.80835 | 37060 ft | 491 kts | 138° |
| 2026-05-04 04:06 | 47.40920 | 12.87831 | 37065 ft | 492 kts | 138° |
| 2026-05-04 04:07 | 47.36013 | 12.94857 | 37088 ft | 491 kts | 138° |
| 2026-05-04 04:07 | 47.31096 | 13.01881 | 37069 ft | 492 kts | 138° |
| 2026-05-04 04:08 | 47.26167 | 13.08899 | 37066 ft | 492 kts | 138° |
| 2026-05-04 04:08 | 47.21266 | 13.15857 | 37087 ft | 493 kts | 137° |
| 2026-05-04 04:09 | 47.16339 | 13.22837 | 37094 ft | 491 kts | 138° |
| 2026-05-04 04:09 | 47.11423 | 13.29781 | 37094 ft | 490 kts | 137° |
| 2026-05-04 04:10 | 47.06498 | 13.36719 | 37104 ft | 491 kts | 137° |
| 2026-05-04 04:10 | 47.01552 | 13.43666 | 37106 ft | 492 kts | 137° |
| 2026-05-04 04:11 | 46.96595 | 13.50610 | 37112 ft | 493 kts | 138° |
| 2026-05-04 04:11 | 46.91627 | 13.57552 | 37113 ft | 493 kts | 138° |
| 2026-05-04 04:12 | 46.86687 | 13.64436 | 37117 ft | 493 kts | 138° |
| 2026-05-04 04:12 | 46.81714 | 13.71350 | 37115 ft | 493 kts | 138° |
| 2026-05-04 04:13 | 46.76737 | 13.78247 | 37225 ft | 496 kts | 138° |
| 2026-05-04 04:13 | 46.74231 | 13.81713 | 37737 ft | 494 kts | 138° |
| 2026-05-04 04:13 | 46.71942 | 13.84877 | 38210 ft | 493 kts | 138° |
| 2026-05-04 04:14 | 46.69470 | 13.88287 | 38712 ft | 492 kts | 138° |
| 2026-05-04 04:14 | 46.66984 | 13.91713 | 39033 ft | 494 kts | 138° |
| 2026-05-04 04:14 | 46.61987 | 13.98585 | 39113 ft | 489 kts | 138° |
| 2026-05-04 04:15 | 46.57039 | 14.05370 | 39116 ft | 490 kts | 138° |
| 2026-05-04 04:15 | 46.52066 | 14.12171 | 39107 ft | 490 kts | 138° |
| 2026-05-04 04:16 | 46.47132 | 14.18903 | 39108 ft | 491 kts | 138° |
| 2026-05-04 04:16 | 46.42149 | 14.25684 | 39110 ft | 492 kts | 138° |
| 2026-05-04 04:17 | 46.37151 | 14.32466 | 39137 ft | 493 kts | 138° |
| 2026-05-04 04:17 | 46.32131 | 14.39261 | 39150 ft | 494 kts | 138° |
| 2026-05-04 04:18 | 46.27101 | 14.46053 | 39151 ft | 494 kts | 138° |
| 2026-05-04 04:18 | 46.22097 | 14.52790 | 39136 ft | 494 kts | 138° |
| 2026-05-04 04:19 | 46.17061 | 14.59553 | 39136 ft | 494 kts | 138° |
| 2026-05-04 04:19 | 46.12032 | 14.66289 | 39132 ft | 494 kts | 138° |
| 2026-05-04 04:20 | 46.07025 | 14.72978 | 39136 ft | 494 kts | 138° |
| 2026-05-04 04:20 | 46.01996 | 14.79679 | 39130 ft | 494 kts | 138° |
| 2026-05-04 04:21 | 45.96944 | 14.86394 | 39117 ft | 494 kts | 138° |
| 2026-05-04 04:21 | 45.91897 | 14.93084 | 39117 ft | 494 kts | 138° |
| 2026-05-04 04:22 | 45.86838 | 14.99772 | 39117 ft | 495 kts | 139° |
| 2026-05-04 04:22 | 45.81760 | 15.06468 | 39118 ft | 495 kts | 139° |
| 2026-05-04 04:23 | 45.76685 | 15.13144 | 39107 ft | 496 kts | 138° |
| 2026-05-04 04:23 | 45.71594 | 15.19822 | 39114 ft | 496 kts | 138° |
| 2026-05-04 04:24 | 45.66529 | 15.26450 | 39119 ft | 497 kts | 138° |
| 2026-05-04 04:24 | 45.61427 | 15.33109 | 39120 ft | 497 kts | 138° |
| 2026-05-04 04:25 | 45.56315 | 15.39764 | 39121 ft | 497 kts | 138° |
| 2026-05-04 04:25 | 45.51201 | 15.46404 | 39117 ft | 497 kts | 138° |
| 2026-05-04 04:26 | 45.46087 | 15.53028 | 39114 ft | 497 kts | 139° |
| 2026-05-04 04:26 | 45.40993 | 15.59607 | 39119 ft | 497 kts | 139° |
| 2026-05-04 04:27 | 45.35861 | 15.66220 | 39122 ft | 497 kts | 138° |
| 2026-05-04 04:27 | 45.30728 | 15.72817 | 39120 ft | 498 kts | 139° |
| 2026-05-04 04:28 | 45.25579 | 15.79419 | 39111 ft | 498 kts | 139° |
| 2026-05-04 04:28 | 45.20425 | 15.86009 | 39118 ft | 499 kts | 139° |
| 2026-05-04 04:29 | 45.15259 | 15.92598 | 39119 ft | 499 kts | 139° |
| 2026-05-04 04:29 | 45.10090 | 15.99173 | 39129 ft | 500 kts | 139° |
| 2026-05-04 04:30 | 45.04947 | 16.05699 | 39126 ft | 500 kts | 139° |
| 2026-05-04 04:30 | 44.99757 | 16.12269 | 39118 ft | 500 kts | 139° |
| 2026-05-04 04:31 | 44.94567 | 16.18822 | 39120 ft | 500 kts | 139° |
| 2026-05-04 04:31 | 44.89364 | 16.25374 | 39130 ft | 501 kts | 138° |
| 2026-05-04 04:32 | 44.84197 | 16.31865 | 39131 ft | 501 kts | 138° |
| 2026-05-04 04:32 | 44.78992 | 16.38387 | 39136 ft | 501 kts | 139° |
| 2026-05-04 04:33 | 44.73774 | 16.44910 | 39129 ft | 501 kts | 139° |
| 2026-05-04 04:33 | 44.68558 | 16.51411 | 39125 ft | 502 kts | 138° |
| 2026-05-04 04:34 | 44.63320 | 16.57926 | 39142 ft | 502 kts | 138° |
| 2026-05-04 04:34 | 44.58089 | 16.64415 | 39141 ft | 503 kts | 138° |
| 2026-05-04 04:35 | 44.52869 | 16.70875 | 39145 ft | 503 kts | 139° |
| 2026-05-04 04:35 | 44.47620 | 16.77354 | 39148 ft | 504 kts | 138° |
| 2026-05-04 04:36 | 44.42347 | 16.83847 | 39161 ft | 504 kts | 138° |
| 2026-05-04 04:36 | 44.37075 | 16.90322 | 39161 ft | 505 kts | 138° |
| 2026-05-04 04:37 | 44.26511 | 17.03246 | 39166 ft | 506 kts | 138° |
| 2026-05-04 04:38 | 44.21240 | 17.09673 | 39180 ft | 506 kts | 138° |
| 2026-05-04 04:38 | 44.15929 | 17.16130 | 39181 ft | 507 kts | 138° |
| 2026-05-04 04:39 | 44.10608 | 17.22586 | 39191 ft | 507 kts | 138° |
| 2026-05-04 04:39 | 44.05278 | 17.29034 | 39185 ft | 508 kts | 138° |
| 2026-05-04 04:40 | 43.99941 | 17.35476 | 39183 ft | 508 kts | 138° |
| 2026-05-04 04:40 | 43.94633 | 17.41867 | 39185 ft | 509 kts | 139° |
| 2026-05-04 04:41 | 43.89280 | 17.48297 | 39176 ft | 509 kts | 139° |
| 2026-05-04 04:41 | 43.83922 | 17.54716 | 39185 ft | 509 kts | 138° |
| 2026-05-04 04:42 | 43.78563 | 17.61121 | 39164 ft | 508 kts | 139° |
| 2026-05-04 04:42 | 43.74107 | 17.66435 | 39167 ft | 509 kts | 139° |
| 2026-05-04 04:43 | 43.68743 | 17.72817 | 39168 ft | 509 kts | 139° |
| 2026-05-04 04:43 | 43.62494 | 17.80231 | 39180 ft | 510 kts | 138° |
| 2026-05-04 04:44 | 43.57981 | 17.85574 | 39176 ft | 510 kts | 138° |
| 2026-05-04 04:44 | 43.52618 | 17.91908 | 39177 ft | 511 kts | 138° |
| 2026-05-04 04:45 | 43.47212 | 17.98278 | 39177 ft | 511 kts | 138° |
| 2026-05-04 04:47 | 43.28260 | 18.20484 | 39197 ft | 512 kts | 139° |
| 2026-05-04 04:47 | 43.22859 | 18.26779 | 39202 ft | 512 kts | 139° |
| 2026-05-04 04:48 | 43.17429 | 18.33091 | 39204 ft | 512 kts | 139° |
| 2026-05-04 04:49 | 43.03816 | 18.48850 | 39192 ft | 513 kts | 138° |
| 2026-05-04 04:49 | 42.98355 | 18.55146 | 39197 ft | 514 kts | 138° |
| 2026-05-04 04:50 | 42.92879 | 18.61443 | 39196 ft | 515 kts | 138° |
| 2026-05-04 04:50 | 42.87392 | 18.67739 | 39204 ft | 515 kts | 139° |
| 2026-05-04 04:51 | 42.81939 | 18.73979 | 39203 ft | 516 kts | 139° |
| 2026-05-04 04:51 | 42.76435 | 18.80261 | 39190 ft | 517 kts | 138° |
| 2026-05-04 04:52 | 42.70918 | 18.86547 | 39190 ft | 518 kts | 138° |
| 2026-05-04 04:52 | 42.65388 | 18.92831 | 39206 ft | 518 kts | 138° |
| 2026-05-04 04:53 | 42.59848 | 18.99111 | 39172 ft | 519 kts | 138° |
| 2026-05-04 04:53 | 42.54300 | 19.05386 | 39172 ft | 519 kts | 138° |
| 2026-05-04 04:54 | 42.48747 | 19.11650 | 39180 ft | 519 kts | 138° |
| 2026-05-04 04:54 | 42.43205 | 19.17887 | 39182 ft | 521 kts | 138° |
| 2026-05-04 04:55 | 42.37637 | 19.24138 | 39179 ft | 521 kts | 138° |
| 2026-05-04 04:55 | 42.32052 | 19.30393 | 39176 ft | 521 kts | 138° |
| 2026-05-04 04:56 | 42.26463 | 19.36639 | 39174 ft | 522 kts | 138° |
| 2026-05-04 04:56 | 42.20861 | 19.42883 | 39166 ft | 522 kts | 138° |
| 2026-05-04 04:57 | 42.15252 | 19.49122 | 39144 ft | 523 kts | 138° |
| 2026-05-04 04:57 | 42.09663 | 19.55323 | 39140 ft | 523 kts | 138° |
| 2026-05-04 04:58 | 42.04038 | 19.61549 | 39147 ft | 524 kts | 138° |
| 2026-05-04 04:58 | 41.98394 | 19.67780 | 39157 ft | 524 kts | 138° |
| 2026-05-04 04:59 | 41.92756 | 19.73992 | 39160 ft | 524 kts | 138° |
| 2026-05-04 04:59 | 41.87106 | 19.80202 | 39186 ft | 525 kts | 139° |
| 2026-05-04 05:00 | 41.81481 | 19.86369 | 39162 ft | 526 kts | 139° |
| 2026-05-04 05:01 | 41.72975 | 19.95668 | 39174 ft | 526 kts | 139° |
| 2026-05-04 05:01 | 41.67307 | 20.01846 | 39177 ft | 526 kts | 139° |
| 2026-05-04 05:02 | 41.61629 | 20.08020 | 39178 ft | 526 kts | 139° |
| 2026-05-04 05:02 | 41.55936 | 20.14198 | 39195 ft | 527 kts | 139° |
| 2026-05-04 05:03 | 41.50237 | 20.20366 | 39176 ft | 527 kts | 139° |
| 2026-05-04 05:04 | 41.38824 | 20.32675 | 39191 ft | 528 kts | 139° |
| 2026-05-04 05:04 | 41.33138 | 20.38787 | 39199 ft | 529 kts | 139° |
| 2026-05-04 05:06 | 41.10210 | 20.63288 | 39190 ft | 529 kts | 139° |
| 2026-05-04 05:07 | 41.04451 | 20.69408 | 39198 ft | 530 kts | 139° |
| 2026-05-04 05:07 | 40.98697 | 20.75507 | 39200 ft | 530 kts | 139° |
| 2026-05-04 05:09 | 40.72703 | 21.02887 | 39196 ft | 532 kts | 140° |
| 2026-05-04 05:10 | 40.66908 | 21.08953 | 39196 ft | 532 kts | 140° |
| 2026-05-04 05:10 | 40.61124 | 21.14993 | 39202 ft | 532 kts | 141° |
| 2026-05-04 05:11 | 40.55315 | 21.21046 | 39188 ft | 533 kts | 141° |
| 2026-05-04 05:11 | 40.49508 | 21.27082 | 39187 ft | 532 kts | 141° |
| 2026-05-04 05:12 | 40.43711 | 21.33095 | 39189 ft | 533 kts | 141° |
| 2026-05-04 05:12 | 40.37927 | 21.39081 | 39190 ft | 533 kts | 141° |
| 2026-05-04 05:13 | 40.32088 | 21.45110 | 39183 ft | 534 kts | 141° |
| 2026-05-04 05:13 | 40.26232 | 21.51143 | 39195 ft | 536 kts | 141° |
| 2026-05-04 05:14 | 40.20363 | 21.57175 | 39194 ft | 537 kts | 141° |
| 2026-05-04 05:14 | 40.14485 | 21.63203 | 39197 ft | 537 kts | 141° |
| 2026-05-04 05:15 | 40.08601 | 21.69223 | 39191 ft | 537 kts | 141° |
| 2026-05-04 05:15 | 40.02751 | 21.75196 | 39195 ft | 537 kts | 141° |
| 2026-05-04 05:16 | 39.96865 | 21.81192 | 39196 ft | 537 kts | 141° |
| 2026-05-04 05:16 | 39.90965 | 21.87188 | 39187 ft | 537 kts | 141° |
| 2026-05-04 05:17 | 39.85069 | 21.93167 | 39178 ft | 537 kts | 141° |
| 2026-05-04 05:17 | 39.79205 | 21.99100 | 39176 ft | 537 kts | 141° |
| 2026-05-04 05:18 | 39.73306 | 22.05056 | 39176 ft | 537 kts | 141° |
| 2026-05-04 05:18 | 39.67409 | 22.10995 | 39183 ft | 537 kts | 141° |
| 2026-05-04 05:19 | 39.61503 | 22.16932 | 39193 ft | 537 kts | 141° |
| 2026-05-04 05:19 | 39.55585 | 22.22867 | 39184 ft | 538 kts | 141° |
| 2026-05-04 05:20 | 39.49670 | 22.28785 | 39187 ft | 538 kts | 141° |
| 2026-05-04 05:20 | 39.43741 | 22.34704 | 39191 ft | 538 kts | 141° |
| 2026-05-04 05:21 | 39.37836 | 22.40587 | 39193 ft | 539 kts | 141° |
| 2026-05-04 05:21 | 39.31895 | 22.46492 | 39205 ft | 539 kts | 141° |
| 2026-05-04 05:22 | 39.25962 | 22.52377 | 39191 ft | 539 kts | 141° |
| 2026-05-04 05:22 | 39.20015 | 22.58262 | 39186 ft | 538 kts | 141° |
| 2026-05-04 05:23 | 39.14079 | 22.64125 | 39185 ft | 538 kts | 141° |
| 2026-05-04 05:23 | 39.08131 | 22.69986 | 39185 ft | 538 kts | 141° |
| 2026-05-04 05:24 | 39.02176 | 22.75840 | 39168 ft | 538 kts | 141° |
| 2026-05-04 05:24 | 38.96260 | 22.81645 | 39193 ft | 537 kts | 141° |
| 2026-05-04 05:25 | 38.90315 | 22.87464 | 39182 ft | 536 kts | 141° |
| 2026-05-04 05:25 | 38.84378 | 22.93264 | 39173 ft | 536 kts | 141° |
| 2026-05-04 05:26 | 38.78490 | 22.99004 | 39158 ft | 535 kts | 142° |
| 2026-05-04 05:26 | 38.72531 | 23.04800 | 39158 ft | 535 kts | 142° |
| 2026-05-04 05:28 | 38.48793 | 23.27767 | 39163 ft | 537 kts | 142° |
| 2026-05-04 05:29 | 38.42829 | 23.33506 | 39168 ft | 537 kts | 142° |
| 2026-05-04 05:29 | 38.36852 | 23.39247 | 39173 ft | 538 kts | 142° |
| 2026-05-04 05:31 | 38.12950 | 23.62079 | 39160 ft | 537 kts | 142° |
| 2026-05-04 05:32 | 38.06979 | 23.67753 | 39157 ft | 536 kts | 142° |
| 2026-05-04 05:33 | 37.98021 | 23.76245 | 39151 ft | 536 kts | 143° |
| 2026-05-04 05:33 | 37.92261 | 23.81689 | 39154 ft | 536 kts | 143° |
| 2026-05-04 05:34 | 37.86276 | 23.87336 | 39151 ft | 536 kts | 143° |
| 2026-05-04 05:34 | 37.80297 | 23.92965 | 39151 ft | 536 kts | 143° |
| 2026-05-04 05:35 | 37.75321 | 23.97642 | 39149 ft | 536 kts | 143° |
| 2026-05-04 05:35 | 37.69327 | 24.03264 | 39146 ft | 536 kts | 143° |
| 2026-05-04 05:36 | 37.63328 | 24.08879 | 39152 ft | 537 kts | 143° |
| 2026-05-04 05:36 | 37.57318 | 24.14492 | 39153 ft | 537 kts | 143° |
| 2026-05-04 05:37 | 37.51314 | 24.20089 | 39156 ft | 537 kts | 144° |
| 2026-05-04 05:37 | 37.45296 | 24.25687 | 39154 ft | 537 kts | 144° |
| 2026-05-04 05:38 | 37.36263 | 24.34069 | 39133 ft | 538 kts | 144° |
| 2026-05-04 05:38 | 37.30225 | 24.39657 | 39160 ft | 539 kts | 144° |
| 2026-05-04 05:39 | 37.21152 | 24.48033 | 39149 ft | 539 kts | 144° |
| 2026-05-04 05:40 | 37.12149 | 24.56319 | 39133 ft | 539 kts | 144° |
| 2026-05-04 05:40 | 37.06091 | 24.61880 | 39141 ft | 540 kts | 144° |
| 2026-05-04 05:41 | 37.00019 | 24.67443 | 39140 ft | 540 kts | 144° |
| 2026-05-04 05:41 | 36.93949 | 24.72994 | 39138 ft | 540 kts | 144° |
| 2026-05-04 05:42 | 36.87871 | 24.78539 | 39111 ft | 541 kts | 145° |
| 2026-05-04 05:42 | 36.81781 | 24.84085 | 39118 ft | 542 kts | 145° |
| 2026-05-04 05:43 | 36.75667 | 24.89641 | 39127 ft | 543 kts | 145° |
| 2026-05-04 05:45 | 36.51199 | 25.11767 | 39135 ft | 544 kts | 145° |
| 2026-05-04 05:47 | 36.26668 | 25.33772 | 39107 ft | 543 kts | 146° |
| 2026-05-04 05:47 | 36.20571 | 25.39215 | 39108 ft | 543 kts | 146° |
| 2026-05-04 05:48 | 36.14435 | 25.44681 | 39108 ft | 543 kts | 146° |
| 2026-05-04 05:48 | 36.08290 | 25.50144 | 39112 ft | 543 kts | 146° |
| 2026-05-04 05:49 | 36.02147 | 25.55596 | 39102 ft | 543 kts | 147° |
| 2026-05-04 05:49 | 35.96037 | 25.61006 | 39103 ft | 544 kts | 147° |
| 2026-05-04 05:51 | 35.71377 | 25.82740 | 39078 ft | 546 kts | 147° |
| 2026-05-04 05:52 | 35.65185 | 25.88170 | 39091 ft | 547 kts | 147° |
| 2026-05-04 05:52 | 35.59022 | 25.93565 | 39093 ft | 548 kts | 147° |
| 2026-05-04 05:54 | 35.34125 | 26.15253 | 39083 ft | 548 kts | 147° |
| 2026-05-04 05:55 | 35.27909 | 26.20642 | 39082 ft | 547 kts | 147° |
| 2026-05-04 05:55 | 35.21733 | 26.25986 | 39080 ft | 547 kts | 147° |
| 2026-05-04 05:56 | 35.15512 | 26.31357 | 39044 ft | 548 kts | 148° |
| 2026-05-04 05:56 | 35.09274 | 26.36734 | 39051 ft | 549 kts | 148° |
| 2026-05-04 05:57 | 35.03017 | 26.42117 | 39059 ft | 550 kts | 148° |
| 2026-05-04 05:57 | 34.96746 | 26.47502 | 39071 ft | 551 kts | 148° |
| 2026-05-04 05:58 | 34.90461 | 26.52889 | 39031 ft | 552 kts | 148° |
| 2026-05-04 05:58 | 34.84227 | 26.58223 | 39090 ft | 552 kts | 148° |
| 2026-05-04 05:59 | 34.77940 | 26.63595 | 39096 ft | 552 kts | 148° |
| 2026-05-04 05:59 | 34.71651 | 26.68961 | 39093 ft | 551 kts | 148° |
| 2026-05-04 06:00 | 34.65369 | 26.74310 | 39078 ft | 551 kts | 148° |
| 2026-05-04 06:00 | 34.59092 | 26.79644 | 39066 ft | 550 kts | 148° |
| 2026-05-04 06:01 | 34.52834 | 26.84952 | 39067 ft | 551 kts | 148° |
| 2026-05-04 06:03 | 34.27671 | 27.06199 | 39071 ft | 550 kts | 149° |
| 2026-05-04 06:05 | 33.99296 | 27.29809 | 39071 ft | 546 kts | 154° |
| 2026-05-04 06:06 | 33.92759 | 27.34334 | 39070 ft | 544 kts | 156° |
| 2026-05-04 06:06 | 33.85936 | 27.38195 | 39070 ft | 540 kts | 162° |
| 2026-05-04 06:07 | 33.79050 | 27.41830 | 39070 ft | 541 kts | 161° |
| 2026-05-04 06:07 | 33.72169 | 27.45488 | 39066 ft | 540 kts | 162° |
| 2026-05-04 06:08 | 33.65333 | 27.49098 | 39084 ft | 540 kts | 162° |
| 2026-05-04 06:08 | 33.58446 | 27.52722 | 39093 ft | 539 kts | 162° |
| 2026-05-04 06:09 | 33.51575 | 27.56329 | 39083 ft | 539 kts | 162° |
| 2026-05-04 06:11 | 33.24188 | 27.70649 | 39085 ft | 538 kts | 162° |
| 2026-05-04 06:13 | 32.96779 | 27.84883 | 39088 ft | 536 kts | 163° |
| 2026-05-04 06:14 | 32.72936 | 27.97187 | 39093 ft | 534 kts | 163° |
| 2026-05-04 06:15 | 32.66112 | 28.00695 | 39092 ft | 534 kts | 163° |
| 2026-05-04 06:15 | 32.59291 | 28.04196 | 39101 ft | 534 kts | 163° |
| 2026-05-04 06:16 | 32.52475 | 28.07689 | 39103 ft | 533 kts | 163° |
| 2026-05-04 06:16 | 32.45672 | 28.11169 | 39108 ft | 532 kts | 163° |
| 2026-05-04 06:17 | 32.38879 | 28.14639 | 39099 ft | 530 kts | 164° |
| 2026-05-04 06:17 | 32.32157 | 28.18066 | 39101 ft | 529 kts | 164° |
| 2026-05-04 06:18 | 32.25387 | 28.21511 | 39107 ft | 529 kts | 164° |
| 2026-05-04 06:20 | 31.98356 | 28.35214 | 39113 ft | 528 kts | 165° |
| 2026-05-04 06:21 | 31.81505 | 28.43713 | 39104 ft | 527 kts | 165° |
| 2026-05-04 06:22 | 31.74755 | 28.47107 | 39111 ft | 528 kts | 165° |
| 2026-05-04 06:25 | 31.27526 | 28.70711 | 39133 ft | 525 kts | 166° |
| 2026-05-04 06:26 | 31.20808 | 28.74047 | 39112 ft | 524 kts | 166° |
| 2026-05-04 06:26 | 31.14143 | 28.77351 | 39116 ft | 524 kts | 166° |
| 2026-05-04 06:27 | 30.98523 | 28.85077 | 39113 ft | 522 kts | 166° |
| 2026-05-04 06:28 | 30.91833 | 28.88376 | 39118 ft | 522 kts | 166° |
| 2026-05-04 06:28 | 30.85126 | 28.91679 | 39128 ft | 523 kts | 166° |
| 2026-05-04 06:29 | 30.78411 | 28.94981 | 39135 ft | 524 kts | 166° |
| 2026-05-04 06:29 | 30.71706 | 28.98276 | 39164 ft | 521 kts | 166° |
| 2026-05-04 06:30 | 30.65068 | 29.01531 | 39151 ft | 520 kts | 166° |
| 2026-05-04 06:30 | 30.58405 | 29.04794 | 39135 ft | 520 kts | 166° |
| 2026-05-04 06:31 | 30.51864 | 29.08532 | 39127 ft | 531 kts | 156° |
| 2026-05-04 06:31 | 30.45965 | 29.13879 | 39075 ft | 546 kts | 142° |
| 2026-05-04 06:33 | 30.25199 | 29.39658 | 39102 ft | 548 kts | 140° |
| 2026-05-04 06:34 | 30.19987 | 29.46104 | 39106 ft | 549 kts | 140° |
| 2026-05-04 06:34 | 30.14771 | 29.52545 | 39106 ft | 549 kts | 140° |
| 2026-05-04 06:36 | 29.93916 | 29.78191 | 39110 ft | 548 kts | 141° |
| 2026-05-04 06:37 | 29.88683 | 29.84602 | 39098 ft | 548 kts | 141° |
| 2026-05-04 06:37 | 29.83455 | 29.90994 | 39105 ft | 548 kts | 141° |
| 2026-05-04 06:38 | 29.78218 | 29.97386 | 39108 ft | 548 kts | 141° |
| 2026-05-04 06:40 | 29.57344 | 30.22764 | 39097 ft | 546 kts | 141° |
| 2026-05-04 06:40 | 29.52114 | 30.29097 | 39102 ft | 546 kts | 141° |
| 2026-05-04 06:41 | 29.46886 | 30.35417 | 39109 ft | 545 kts | 141° |
| 2026-05-04 06:41 | 29.41656 | 30.41730 | 39117 ft | 545 kts | 142° |
| 2026-05-04 06:42 | 29.36434 | 30.48024 | 39108 ft | 543 kts | 142° |
| 2026-05-04 06:44 | 29.15622 | 30.73002 | 39120 ft | 543 kts | 142° |
| 2026-05-04 06:44 | 29.10404 | 30.79241 | 39117 ft | 543 kts | 142° |
| 2026-05-04 06:45 | 29.05179 | 30.85479 | 39127 ft | 543 kts | 142° |
| 2026-05-04 06:45 | 28.99955 | 30.91706 | 39128 ft | 542 kts | 142° |
| 2026-05-04 06:46 | 28.94727 | 30.97926 | 39123 ft | 542 kts | 142° |
| 2026-05-04 06:46 | 28.89505 | 31.04131 | 39136 ft | 542 kts | 142° |
| 2026-05-04 06:48 | 28.68606 | 31.28865 | 39154 ft | 542 kts | 143° |
| 2026-05-04 06:50 | 28.47695 | 31.53465 | 39147 ft | 541 kts | 143° |
| 2026-05-04 06:51 | 28.42441 | 31.59621 | 39160 ft | 541 kts | 143° |
| 2026-05-04 06:51 | 28.37194 | 31.65760 | 39160 ft | 541 kts | 143° |
| 2026-05-04 06:52 | 28.31978 | 31.71854 | 39158 ft | 541 kts | 143° |
| 2026-05-04 06:52 | 28.26735 | 31.77971 | 39151 ft | 540 kts | 143° |
| 2026-05-04 06:53 | 28.21489 | 31.84082 | 39147 ft | 540 kts | 143° |
| 2026-05-04 06:53 | 28.16242 | 31.90185 | 39143 ft | 540 kts | 143° |
| 2026-05-04 06:54 | 28.10997 | 31.96277 | 39143 ft | 540 kts | 143° |
| 2026-05-04 06:54 | 28.05844 | 32.02441 | 39156 ft | 546 kts | 137° |
| 2026-05-04 06:55 | 28.01512 | 32.09650 | 39131 ft | 561 kts | 125° |
| 2026-05-04 06:55 | 27.98118 | 32.17658 | 39143 ft | 565 kts | 121° |
| 2026-05-04 06:57 | 27.84731 | 32.49700 | 39112 ft | 564 kts | 122° |
| 2026-05-04 06:58 | 27.81363 | 32.57718 | 39104 ft | 565 kts | 122° |
| 2026-05-04 06:58 | 27.77981 | 32.65749 | 39116 ft | 565 kts | 122° |
| 2026-05-04 06:59 | 27.74604 | 32.73751 | 39112 ft | 565 kts | 122° |
| 2026-05-04 06:59 | 27.71212 | 32.81772 | 39110 ft | 565 kts | 122° |
| 2026-05-04 07:01 | 27.57648 | 33.13690 | 39081 ft | 565 kts | 122° |
| 2026-05-04 07:02 | 27.54246 | 33.21659 | 39075 ft | 564 kts | 122° |
| 2026-05-04 07:02 | 27.50835 | 33.29631 | 39065 ft | 564 kts | 122° |
| 2026-05-04 07:03 | 27.47449 | 33.37530 | 39057 ft | 564 kts | 122° |
| 2026-05-04 07:03 | 27.44031 | 33.45487 | 39057 ft | 564 kts | 122° |
| 2026-05-04 07:04 | 27.40607 | 33.53442 | 39051 ft | 564 kts | 122° |
| 2026-05-04 07:04 | 27.37180 | 33.61391 | 39052 ft | 564 kts | 122° |
| 2026-05-04 07:05 | 27.33752 | 33.69327 | 39029 ft | 564 kts | 123° |
| 2026-05-04 07:05 | 27.30314 | 33.77268 | 39033 ft | 564 kts | 123° |
| 2026-05-04 07:06 | 27.25171 | 33.89118 | 39041 ft | 565 kts | 123° |
| 2026-05-04 07:07 | 27.21726 | 33.97042 | 39026 ft | 566 kts | 123° |
| 2026-05-04 07:09 | 27.07874 | 34.28739 | 39028 ft | 566 kts | 123° |
| 2026-05-04 07:09 | 27.04397 | 34.36657 | 39033 ft | 566 kts | 123° |
| 2026-05-04 07:10 | 27.00911 | 34.44580 | 39030 ft | 565 kts | 123° |
| 2026-05-04 07:12 | 26.87007 | 34.76039 | 39024 ft | 562 kts | 124° |
| 2026-05-04 07:12 | 26.83523 | 34.83884 | 39025 ft | 562 kts | 124° |
| 2026-05-04 07:13 | 26.80039 | 34.91716 | 39024 ft | 561 kts | 124° |
| 2026-05-04 07:13 | 26.76554 | 34.99534 | 38997 ft | 561 kts | 124° |
| 2026-05-04 07:14 | 26.67864 | 35.18968 | 39018 ft | 559 kts | 124° |
| 2026-05-04 07:15 | 26.64391 | 35.26711 | 39009 ft | 558 kts | 124° |
| 2026-05-04 07:15 | 26.60904 | 35.34471 | 39016 ft | 558 kts | 125° |
| 2026-05-04 07:16 | 26.57413 | 35.42224 | 39005 ft | 557 kts | 125° |
| 2026-05-04 07:16 | 26.53929 | 35.49949 | 39000 ft | 557 kts | 125° |
| 2026-05-04 07:17 | 26.50443 | 35.57666 | 39007 ft | 555 kts | 124° |
| 2026-05-04 07:17 | 26.46959 | 35.65363 | 38999 ft | 555 kts | 124° |
| 2026-05-04 07:18 | 26.43496 | 35.72998 | 39003 ft | 555 kts | 124° |
| 2026-05-04 07:18 | 26.40012 | 35.80669 | 39000 ft | 553 kts | 124° |
| 2026-05-04 07:19 | 26.37120 | 35.87025 | 38988 ft | 552 kts | 125° |
| 2026-05-04 07:19 | 26.33640 | 35.94659 | 38985 ft | 552 kts | 125° |
| 2026-05-04 07:20 | 26.29592 | 36.03524 | 38978 ft | 551 kts | 125° |
| 2026-05-04 07:20 | 26.26677 | 36.09897 | 38964 ft | 551 kts | 125° |
| 2026-05-04 07:22 | 26.12746 | 36.40225 | 38966 ft | 549 kts | 125° |
| 2026-05-04 07:23 | 26.09279 | 36.47741 | 38964 ft | 549 kts | 125° |
| 2026-05-04 07:23 | 26.05792 | 36.55287 | 38967 ft | 548 kts | 125° |
| 2026-05-04 07:24 | 26.02303 | 36.62824 | 38951 ft | 547 kts | 125° |
| 2026-05-04 07:24 | 25.98817 | 36.70340 | 38947 ft | 547 kts | 125° |
| 2026-05-04 07:26 | 25.84882 | 37.00263 | 38902 ft | 544 kts | 125° |
| 2026-05-04 07:27 | 25.81398 | 37.07715 | 38950 ft | 543 kts | 125° |
| 2026-05-04 07:27 | 25.77915 | 37.15149 | 38945 ft | 543 kts | 125° |
| 2026-05-04 07:28 | 25.74450 | 37.22533 | 38947 ft | 542 kts | 125° |
| 2026-05-04 07:28 | 25.70967 | 37.29944 | 38950 ft | 542 kts | 125° |
| 2026-05-04 07:29 | 25.67473 | 37.37365 | 38959 ft | 542 kts | 125° |
| 2026-05-04 07:29 | 25.63983 | 37.44765 | 38976 ft | 542 kts | 125° |
| 2026-05-04 07:30 | 25.60491 | 37.52158 | 38979 ft | 541 kts | 125° |
| 2026-05-04 07:30 | 25.56999 | 37.59539 | 38978 ft | 541 kts | 125° |
| 2026-05-04 07:31 | 25.53507 | 37.66906 | 38970 ft | 541 kts | 125° |
| 2026-05-04 07:33 | 25.39538 | 37.96261 | 38929 ft | 539 kts | 125° |
| 2026-05-04 07:33 | 25.36042 | 38.03580 | 38940 ft | 539 kts | 125° |
| 2026-05-04 07:34 | 25.32541 | 38.10897 | 38935 ft | 538 kts | 125° |
| 2026-05-04 07:34 | 25.29058 | 38.18161 | 38938 ft | 538 kts | 125° |
| 2026-05-04 07:35 | 25.25565 | 38.25438 | 38940 ft | 537 kts | 125° |
| 2026-05-04 07:35 | 25.22056 | 38.32735 | 38943 ft | 537 kts | 125° |
| 2026-05-04 07:36 | 25.18550 | 38.40015 | 38940 ft | 537 kts | 125° |